Portada
METAR-TAF:

METAR-TAF

Aeroports :

Thiruvananthapuram, Índia

latitud: 08-28N, longitud: 076-57E, altitud: 4 m

Observació

L'informe es va fer fa 37 minuts, a les 08:30 UTC
Vent 6 kt del Oest/Nord-Oest
Temperatura 31°C
Humitat 66%
Pressió 1008 hPa
Visibilitat: 6000 m
Escasses núvols a una alçada de 1500 ft

METAR: VOTV 240830Z 29006KT 6000 FEW015 31/24 Q1008 NOSIG

Hora: 14:37 (09:07 UTC)

Pronòstic

L'informe es va fer fa 1 hora i 7 minuts, a les 08:00 UTC
Pronòstic vàlid del 24 a les 09 UTC al 24 a les 18 UTC
Vent 5 kt del Nord-Oest
Visibilitat: 6000 m
Escasses núvols a una alçada de 1500 ft
Escasses núvols a una alçada de 2500 ft, Cumulonimbus.
Temporalment
l' 24 a les 10 UTC al 24 a les 14 UTC
Visibilitat: 3000 m
Núvols disperses a una alçada de 1500 ft
Escasses núvols a una alçada de 2500 ft, Cumulonimbus.
Núvols disperses a una alçada de 8000 ft
pluja, boirina

TAF: VOTV 240800Z 2409/2418 32005KT 6000 FEW015 FEW025CB TEMPO 2410/2414 3000 RA BR SCT015 FEW025CB SCT080

Observacions i pronòstics meteorològics de més de 4000 aeroports (METAR i TAF).

Les estacions disponibles són els punts grocs i vermells al mapa.

Posi el ratolí al punt desitjat per veure el nom de l'estació.

Feu clic per veure les observacions i els pronòstics meteorològics.

Per canviar el mapa: feu clic els botons verds amb una creu de color negre per apropar; al botó verd amb un guió per allunyar la imatge; o en les fletxes verdes per a mapes adjacents.


METAR-TAF: